Stations météo

réclame
Mon MeteoGroup
Itsaso, Espagne (8037): Température de l'air & dewpoint: 16.07.2018 04:00:00 - 22.07.2018 04:00:00 (CEST)Itsaso, Espagne (8037): Vitesse du vent & gusts: 16.07.2018 04:00:00 - 22.07.2018 04:00:00 (CEST)Itsaso, Espagne (8037): Direction du vent: 16.07.2018 04:00:00 - 22.07.2018 04:00:00 (CEST)Itsaso, Espagne (8037): reduced air pressure: 16.07.2018 04:00:00 - 22.07.2018 04:00:00 (CEST)Itsaso, Espagne (8037): Quantités de précipitations: 16.07.2018 04:00:00 - 22.07.2018 04:00:00 (CEST)
Date & Time tt [°C] td [°C] ff [km/h] ff [knt] fx [km/h] fx [knt] dd ppp [hPa] rr [mm]
22.07.2018 04:00:00 - - - - - - - - -
22.07.2018 03:00:00 13,8 13,7 0 0 2 1 WNW 1016,7 0,0
22.07.2018 02:00:00 14,6 14,1 0 0 1 0 NE 1016,9 -
22.07.2018 01:00:00 15,3 14,3 0 0 3 1 SSW 1017,0 0,0
22.07.2018 00:00:00 15,6 14,4 0 0 4 2 N 1016,9 0,0
21.07.2018 23:00:00 16,2 14,0 1 1 10 5 N 1016,7 0,0
21.07.2018 22:00:00 16,5 13,9 3 1 10 5 NNW 1016,2 0,0
21.07.2018 21:00:00 17,2 13,8 3 2 11 6 NNW 1015,3 0,0
21.07.2018 20:00:00 18,0 13,7 5 3 13 7 NNW 1014,8 -
21.07.2018 19:00:00 18,9 12,6 7 4 16 9 NNW 1014,7 0,0
21.07.2018 18:00:00 19,9 11,9 4 2 14 7 N 1014,6 0,0
21.07.2018 17:00:00 20,6 9,8 10 5 17 9 NNW 1014,8 0,0
21.07.2018 16:00:00 20,0 8,9 1 1 14 8 SW 1015,3 0,0
21.07.2018 15:00:00 18,6 10,6 2 1 12 6 W 1015,9 0,0
21.07.2018 14:00:00 18,6 10,6 4 2 11 6 NW 1015,9 -
21.07.2018 13:00:00 18,1 11,7 1 1 11 6 WNW 1016,4 0,0
21.07.2018 12:00:00 16,4 12,5 0 0 13 7 NW 1016,7 0,0
21.07.2018 11:00:00 14,7 13,3 4 2 14 8 W 1017,0 0,0
21.07.2018 10:00:00 14,2 14,0 5 3 21 11 W 1017,1 0,0
21.07.2018 09:00:00 13,9 13,8 8 4 14 8 WNW 1017,0 0,0
21.07.2018 08:00:00 13,6 13,5 4 2 8 4 W 1016,9 -
21.07.2018 07:00:00 13,1 13,0 0 0 6 4 SE 1016,9 0,0
21.07.2018 06:00:00 13,5 13,2 0 0 10 6 W 1017,2 0,0
21.07.2018 05:00:00 13,7 13,4 8 4 16 9 W 1017,2 0,0
21.07.2018 04:00:00 13,6 13,3 10 5 24 13 W 1017,2 0,0
21.07.2018 03:00:00 13,9 13,8 11 6 19 10 W 1017,6 0,0
21.07.2018 02:00:00 14,1 13,9 5 3 11 6 W 1018,1 -
21.07.2018 01:00:00 14,2 14,0 3 2 10 5 W 1018,4 0,0
21.07.2018 00:00:00 14,1 13,9 5 3 11 6 W 1018,5 0,0
20.07.2018 23:00:00 14,1 13,9 2 1 14 8 WSW 1018,7 0,0
20.07.2018 22:00:00 14,3 12,8 6 3 34 18 WNW 1018,2 0,4
20.07.2018 21:00:00 14,9 14,6 9 5 22 12 W 1017,9 0,0
20.07.2018 20:00:00 15,3 14,5 11 6 28 15 WNW 1017,5 -
20.07.2018 19:00:00 16,1 15,2 9 5 27 15 NW 1016,8 0,3
20.07.2018 18:00:00 17,1 14,9 13 7 27 15 NW 1016,9 0,0
20.07.2018 17:00:00 17,8 16,3 13 7 22 12 W 1016,4 0,0
20.07.2018 16:00:00 16,9 16,4 10 5 23 13 W 1016,3 0,0
20.07.2018 15:00:00 17,8 15,4 10 5 17 9 W 1016,2 0,0
20.07.2018 14:00:00 18,1 14,0 6 3 16 9 NW 1016,4 -
20.07.2018 13:00:00 18,5 13,6 5 3 13 7 NNW 1016,3 0,0
20.07.2018 12:00:00 17,6 15,8 5 3 10 5 WNW 1016,4 0,0
20.07.2018 11:00:00 16,3 16,1 5 3 12 6 W 1016,8 0,0
20.07.2018 10:00:00 16,1 16,0 5 3 11 6 W 1017,0 0,0
20.07.2018 09:00:00 15,8 15,6 4 2 12 6 W 1016,6 0,0
20.07.2018 08:00:00 15,3 15,2 4 2 16 9 W 1016,3 -
20.07.2018 07:00:00 15,2 15,1 2 1 17 9 WSW 1016,4 0,0
20.07.2018 06:00:00 15,3 15,2 10 6 22 12 W 1016,3 0,2
20.07.2018 05:00:00 15,7 15,5 3 1 12 6 W 1016,4 0,1
20.07.2018 04:00:00 16,1 16,0 2 1 9 5 W 1016,4 0,2
20.07.2018 03:00:00 16,4 15,8 1 1 6 3 WNW 1016,8 0,1
20.07.2018 02:00:00 17,1 16,1 4 2 7 4 W 1017,1 -
20.07.2018 01:00:00 17,1 16,3 2 1 14 8 W 1017,3 0,0
20.07.2018 00:00:00 17,2 16,2 8 5 17 9 W 1017,2 0,0
19.07.2018 23:00:00 17,4 16,2 8 4 16 9 W 1016,9 0,0
19.07.2018 22:00:00 18,0 17,2 7 4 19 10 NNW 1016,6 0,0
19.07.2018 21:00:00 19,0 17,5 9 5 22 12 NW 1015,8 0,0
19.07.2018 20:00:00 19,1 17,5 10 6 24 13 NNW 1015,4 -
19.07.2018 19:00:00 19,9 16,9 11 6 26 14 NW 1014,9 0,0
19.07.2018 18:00:00 20,4 18,2 10 5 29 16 NNW 1014,7 0,0
19.07.2018 17:00:00 22,3 18,9 10 6 29 16 N 1013,9 0,0
19.07.2018 16:00:00 23,7 17,9 14 8 22 12 NNW 1012,9 0,0
19.07.2018 15:00:00 25,4 16,6 8 4 20 11 NW 1012,9 0,0
19.07.2018 14:00:00 23,9 15,7 7 4 16 9 WNW 1013,2 -
19.07.2018 13:00:00 23,3 15,6 9 5 16 9 WNW 1013,8 0,0
19.07.2018 12:00:00 21,8 15,9 5 3 9 5 W 1014,0 0,0
19.07.2018 11:00:00 21,4 15,4 2 1 9 5 WNW 1014,4 0,0
19.07.2018 10:00:00 19,7 18,2 0 0 6 3 W 1014,7 0,0
19.07.2018 09:00:00 18,4 18,2 3 1 7 4 WNW 1014,6 0,0
19.07.2018 08:00:00 17,7 17,5 2 1 7 4 W 1014,7 -
19.07.2018 07:00:00 17,4 17,2 4 2 8 4 W 1014,7 0,0
19.07.2018 06:00:00 17,3 17,1 1 1 5 3 W 1014,9 0,0
19.07.2018 05:00:00 17,3 17,1 0 0 6 4 W 1015,2 0,0
19.07.2018 04:00:00 16,8 16,6 4 2 9 5 W 1015,2 0,0
19.07.2018 03:00:00 16,9 16,7 3 2 9 5 WSW 1015,2 0,0
19.07.2018 02:00:00 17,2 17,1 3 2 10 5 WNW 1015,6 -
19.07.2018 01:00:00 17,3 17,1 3 1 9 5 WSW 1015,8 0,0
19.07.2018 00:00:00 17,5 17,4 3 1 8 4 WSW 1015,8 0,0
18.07.2018 23:00:00 18,1 17,6 1 0 4 2 WSW 1015,6 0,0
18.07.2018 22:00:00 18,9 18,1 1 1 11 6 W 1015,0 0,0
18.07.2018 21:00:00 20,1 18,6 5 3 12 7 W 1014,1 0,0
18.07.2018 20:00:00 19,4 18,2 5 3 16 9 SW 1013,4 -
18.07.2018 19:00:00 22,1 20,9 3 2 13 7 E 1012,7 0,9
18.07.2018 18:00:00 22,5 20,8 4 2 21 11 ESE 1012,1 0,3
18.07.2018 17:00:00 25,2 19,1 7 4 18 10 ESE 1011,4 0,0
18.07.2018 16:00:00 25,4 19,1 9 5 28 15 NNW 1011,4 0,0
18.07.2018 15:00:00 27,0 18,0 8 5 22 12 NNW 1010,7 0,0
18.07.2018 14:00:00 25,9 17,3 10 6 24 13 NNW 1010,9 -
18.07.2018 13:00:00 25,9 15,0 11 6 19 10 WNW 1011,2 0,0
18.07.2018 12:00:00 25,7 13,3 1 0 14 8 ENE 1011,1 0,0
18.07.2018 11:00:00 24,0 14,1 2 1 14 8 ENE 1011,6 0,0
18.07.2018 10:00:00 20,7 16,3 1 0 5 3 NNE 1012,4 0,0
18.07.2018 09:00:00 18,0 17,9 0 0 5 3 WNW 1013,0 0,0
18.07.2018 08:00:00 16,7 16,6 0 0 2 1 NW 1013,3 -
18.07.2018 07:00:00 16,5 16,3 0 0 1 0 NW 1013,7 0,0
18.07.2018 06:00:00 17,3 16,8 0 0 1 1 SE 1014,0 0,0
18.07.2018 05:00:00 17,5 16,9 0 0 3 1 WSW 1014,2 0,0
18.07.2018 04:00:00 17,8 16,8 0 0 3 1 SE 1014,7 0,0
18.07.2018 03:00:00 18,1 17,1 0 0 4 2 N 1015,2 0,0
18.07.2018 02:00:00 18,2 17,2 0 0 2 1 N 1015,5 -
18.07.2018 01:00:00 18,3 17,1 0 0 1 1 SE 1016,0 0,0
18.07.2018 00:00:00 18,5 17,1 0 0 9 5 E 1016,3 0,0
17.07.2018 23:00:00 18,5 17,1 3 2 13 7 N 1016,5 0,0
17.07.2018 22:00:00 18,3 17,0 4 2 15 8 N 1016,0 0,0
17.07.2018 21:00:00 18,6 16,9 5 3 20 11 N 1016,2 0,0
17.07.2018 20:00:00 19,2 16,6 8 4 20 11 NNW 1016,0 -
17.07.2018 19:00:00 21,1 16,3 11 6 21 11 NNW 1015,5 0,0
17.07.2018 18:00:00 23,0 16,6 8 4 18 10 NNW 1015,4 0,0
17.07.2018 17:00:00 23,0 15,8 6 3 19 10 N 1015,6 0,0
17.07.2018 16:00:00 23,4 15,4 9 5 25 13 NNW 1016,1 0,0
17.07.2018 15:00:00 23,1 14,4 1 1 14 7 NE 1016,7 0,0
17.07.2018 14:00:00 21,2 14,1 4 2 10 6 NE 1017,6 -
17.07.2018 13:00:00 20,1 14,4 4 2 14 7 ESE 1018,3 0,0
17.07.2018 12:00:00 19,1 15,8 3 2 8 5 ESE 1018,9 0,0
17.07.2018 11:00:00 16,2 16,0 4 2 8 4 E 1019,6 0,0
17.07.2018 10:00:00 15,0 14,8 3 2 7 4 ESE 1020,0 0,0
17.07.2018 09:00:00 14,1 13,9 1 0 5 3 WNW 1020,1 0,0
17.07.2018 08:00:00 12,9 12,7 1 1 3 2 W 1020,4 -
17.07.2018 07:00:00 12,2 12,0 1 1 7 4 E 1020,6 0,0
17.07.2018 06:00:00 12,4 12,2 0 0 3 2 W 1020,3 0,0
17.07.2018 05:00:00 12,5 12,3 0 0 6 3 ESE 1020,8 0,0
17.07.2018 04:00:00 11,8 11,7 1 0 6 3 W 1020,9 0,0
17.07.2018 03:00:00 12,1 12,0 1 0 8 4 WSW 1021,3 0,0
17.07.2018 02:00:00 12,7 12,5 0 0 6 3 W 1021,6 -
17.07.2018 01:00:00 13,0 12,8 1 1 5 3 SW 1021,8 0,0
17.07.2018 00:00:00 13,0 12,8 3 1 6 3 WSW 1022,1 0,0
16.07.2018 23:00:00 13,5 13,4 1 1 5 3 W 1022,0 0,0
16.07.2018 22:00:00 15,0 14,7 0 0 7 4 WSW 1021,2 0,0
16.07.2018 21:00:00 16,1 15,4 1 1 21 11 W 1020,5 0,0
16.07.2018 20:00:00 16,9 15,6 8 5 21 11 WNW 1020,2 -
16.07.2018 19:00:00 15,9 15,4 13 7 32 17 W 1020,1 0,4
16.07.2018 18:00:00 16,5 16,2 10 6 26 14 W 1019,9 0,2
16.07.2018 17:00:00 16,4 15,6 14 8 29 15 W 1019,6 0,9
16.07.2018 16:00:00 17,3 16,1 13 7 29 16 W 1019,4 0,0
16.07.2018 15:00:00 15,9 15,7 8 4 24 13 WNW 1019,4 2,6
16.07.2018 14:00:00 15,6 15,3 18 10 36 20 W 1019,1 -
16.07.2018 13:00:00 16,3 14,1 25 14 45 24 WNW 1018,7 0,1
16.07.2018 12:00:00 17,5 13,7 18 10 28 15 W 1017,8 0,0
16.07.2018 11:00:00 17,1 14,1 11 6 28 15 WNW 1017,8 0,0
16.07.2018 10:00:00 16,1 13,6 16 9 37 20 W 1017,4 0,0
16.07.2018 09:00:00 15,2 14,4 15 8 28 15 W 1016,7 0,4
16.07.2018 08:00:00 15,6 14,8 16 9 37 20 W 1017,1 -
16.07.2018 07:00:00 15,7 15,5 16 9 31 17 W 1016,2 0,2
16.07.2018 06:00:00 16,0 15,9 15 8 31 17 W 1015,8 1,3
16.07.2018 05:00:00 16,7 16,6 14 8 27 15 W 1015,6 0,0
16.07.2018 04:00:00 16,4 16,2 6 4 16 9 W 1015,7 0,0

tt = Température de l'air
td = dewpoint
ff = Vitesse du vent
fx = gusts
dd = Direction du vent
ppp = reduced air pressure
rr = Quantités de précipitations

stations d'obs. à proximité